createdAt,value
2023-05-13T00:00:48.366Z,7.53
2023-05-13T00:03:15.133Z,8.57
2023-05-13T00:05:42.329Z,8.20
2023-05-13T00:08:09.155Z,8.13
2023-05-13T00:10:36.459Z,8.60
2023-05-13T00:13:03.438Z,8.33
2023-05-13T00:15:30.494Z,7.93
2023-05-13T00:17:57.375Z,8.80
2023-05-13T00:20:24.537Z,8.23
2023-05-13T00:22:51.330Z,8.47
2023-05-13T00:25:18.475Z,8.23
2023-05-13T00:27:45.262Z,9.17
2023-05-13T00:30:12.346Z,8.77
2023-05-13T00:32:39.605Z,8.63
2023-05-13T00:35:09.988Z,9.23
2023-05-13T00:37:36.733Z,8.93
2023-05-13T00:40:04.230Z,8.80
2023-05-13T00:42:30.927Z,8.20
2023-05-13T00:44:57.929Z,8.57
2023-05-13T00:47:25.256Z,8.33
2023-05-13T00:49:52.362Z,8.63
2023-05-13T00:52:19.256Z,8.83
2023-05-13T00:54:46.254Z,8.03
2023-05-13T00:57:13.260Z,8.47
2023-05-13T00:59:40.355Z,7.93
2023-05-13T01:02:21.091Z,8.47
2023-05-13T01:05:12.792Z,8.97
2023-05-13T01:08:09.158Z,7.90
2023-05-13T01:10:57.588Z,10.13
2023-05-13T01:13:28.707Z,9.33
2023-05-13T01:16:16.390Z,9.67
2023-05-13T01:19:16.602Z,10.57
2023-05-13T01:21:51.930Z,9.50
2023-05-13T01:24:19.037Z,11.33
2023-05-13T01:26:46.430Z,9.47
2023-05-13T01:29:13.822Z,9.70
2023-05-13T01:31:42.578Z,8.90
2023-05-13T01:34:11.680Z,9.93
2023-05-13T01:36:39.905Z,9.87
2023-05-13T01:39:08.611Z,9.77
2023-05-13T01:41:35.922Z,9.87
2023-05-13T01:44:02.705Z,9.67
2023-05-13T01:46:30.516Z,10.47
2023-05-13T01:48:57.666Z,10.50
2023-05-13T01:51:24.791Z,9.90
2023-05-13T01:53:51.811Z,9.83
2023-05-13T01:56:18.851Z,9.77
2023-05-13T01:58:46.060Z,10.37
2023-05-13T02:01:13.112Z,11.27
2023-05-13T02:03:39.982Z,10.50
2023-05-13T02:06:07.075Z,10.60
2023-05-13T02:08:34.038Z,9.60
2023-05-13T02:11:01.092Z,10.87
2023-05-13T02:13:29.072Z,11.07
2023-05-13T02:15:56.589Z,10.33
2023-05-13T02:18:24.109Z,11.63
2023-05-13T02:20:51.299Z,10.97
2023-05-13T02:23:18.136Z,10.70
2023-05-13T02:25:45.296Z,10.53
2023-05-13T02:28:12.137Z,10.50
2023-05-13T02:30:39.290Z,11.17
2023-05-13T02:33:07.058Z,10.60
2023-05-13T02:35:34.316Z,11.20
2023-05-13T02:38:04.008Z,11.57
2023-05-13T02:40:32.738Z,11.00
2023-05-13T02:42:59.488Z,10.87
2023-05-13T02:45:42.669Z,11.57
2023-05-13T02:48:11.140Z,10.57
2023-05-13T02:50:40.399Z,11.63
2023-05-13T02:53:08.375Z,10.57
2023-05-13T02:55:38.718Z,10.93
2023-05-13T02:58:05.847Z,11.30
2023-05-13T03:00:32.848Z,11.63
2023-05-13T03:02:59.781Z,11.20
2023-05-13T03:05:27.833Z,11.03
2023-05-13T03:07:57.841Z,10.63
2023-05-13T03:10:25.002Z,11.90
2023-05-13T03:12:51.813Z,12.30
2023-05-13T03:15:19.545Z,12.23
2023-05-13T03:17:46.394Z,11.33
2023-05-13T03:20:13.568Z,11.87
2023-05-13T03:22:40.544Z,12.43
2023-05-13T03:25:08.336Z,11.77
2023-05-13T03:27:46.411Z,12.27
2023-05-13T03:30:14.386Z,12.30
2023-05-13T03:32:49.136Z,12.17
2023-05-13T03:35:16.451Z,12.47
2023-05-13T03:37:43.675Z,12.03
2023-05-13T03:40:12.628Z,11.30
2023-05-13T03:42:40.286Z,12.10
2023-05-13T03:45:08.665Z,11.07
2023-05-13T03:47:39.240Z,12.87
2023-05-13T03:50:10.264Z,12.17
2023-05-13T03:52:42.505Z,11.97
2023-05-13T03:55:11.160Z,11.30
2023-05-13T03:57:37.889Z,11.90
2023-05-13T04:00:05.863Z,11.53
2023-05-13T04:02:41.758Z,12.10
2023-05-13T04:05:10.294Z,11.47
2023-05-13T04:07:37.015Z,12.50
2023-05-13T04:10:04.546Z,12.93
2023-05-13T04:12:33.258Z,13.53
2023-05-13T04:15:01.055Z,12.47
2023-05-13T04:17:28.138Z,13.23
2023-05-13T04:19:55.815Z,13.03
2023-05-13T04:22:24.517Z,12.50
2023-05-13T04:24:56.610Z,11.97
2023-05-13T04:27:24.561Z,12.60
2023-05-13T04:29:56.116Z,12.60
2023-05-13T04:32:23.081Z,12.50
2023-05-13T04:34:53.363Z,12.30
2023-05-13T04:37:20.983Z,12.23
2023-05-13T04:39:49.606Z,13.97
2023-05-13T04:42:19.077Z,13.07
2023-05-13T04:44:46.119Z,11.43
2023-05-13T04:47:14.589Z,11.80
2023-05-13T04:49:42.331Z,12.17
2023-05-13T04:52:10.774Z,13.10
2023-05-13T04:54:39.545Z,11.75
2023-05-13T04:57:07.062Z,12.53
2023-05-13T04:59:35.092Z,13.40
2023-05-13T05:02:02.150Z,12.70
2023-05-13T05:04:29.572Z,13.07
2023-05-13T05:06:56.879Z,12.47
2023-05-13T05:09:23.942Z,12.82
2023-05-13T05:11:52.469Z,12.40
2023-05-13T05:14:22.034Z,12.10
2023-05-13T05:16:50.403Z,11.50
2023-05-13T05:19:17.946Z,12.70
2023-05-13T05:21:45.357Z,11.03
2023-05-13T05:24:14.146Z,11.43
2023-05-13T05:26:42.784Z,10.50
2023-05-13T05:29:10.434Z,10.63
2023-05-13T05:31:37.388Z,10.82
2023-05-13T05:34:05.006Z,8.23
2023-05-13T05:36:32.500Z,7.97
2023-05-13T05:38:59.779Z,7.55
2023-05-13T05:41:32.993Z,7.88
2023-05-13T05:44:00.058Z,6.90
2023-05-13T05:46:27.341Z,7.78
2023-05-13T05:48:55.207Z,7.63
2023-05-13T05:51:22.353Z,7.28
2023-05-13T05:53:49.814Z,7.45
2023-05-13T05:56:17.140Z,7.57
2023-05-13T05:58:45.602Z,6.80
2023-05-13T06:01:12.313Z,7.03
2023-05-13T06:03:39.666Z,6.45
2023-05-13T06:06:06.720Z,7.45
2023-05-13T06:08:34.386Z,6.50
2023-05-13T06:11:01.216Z,6.82
2023-05-13T06:13:28.317Z,6.53
2023-05-13T06:15:55.537Z,6.28
2023-05-13T06:18:23.002Z,6.60
2023-05-13T06:20:49.870Z,6.57
2023-05-13T06:23:18.887Z,6.22
2023-05-13T06:25:45.710Z,6.18
2023-05-13T06:28:12.761Z,6.85
2023-05-13T06:30:39.630Z,6.63
2023-05-13T06:33:08.266Z,6.50
2023-05-13T06:35:37.588Z,6.45
2023-05-13T06:38:06.069Z,5.93
2023-05-13T06:40:33.533Z,6.68
2023-05-13T06:43:00.580Z,6.15
2023-05-13T06:45:29.873Z,6.13
2023-05-13T06:47:57.710Z,5.90
2023-05-13T06:50:24.792Z,6.25
2023-05-13T06:52:52.474Z,5.93
2023-05-13T06:55:19.744Z,5.80
2023-05-13T06:57:47.378Z,6.22
2023-05-13T07:00:15.583Z,6.10
2023-05-13T07:02:42.816Z,6.10
2023-05-13T07:05:11.574Z,5.75
2023-05-13T07:07:39.098Z,6.15
2023-05-13T07:10:06.043Z,6.82
2023-05-13T07:12:33.453Z,6.50
2023-05-13T07:15:00.288Z,5.38
2023-05-13T07:17:27.401Z,6.07
2023-05-13T07:19:54.260Z,5.95
2023-05-13T07:22:21.307Z,5.85
2023-05-13T07:24:47.989Z,5.47
2023-05-13T07:27:15.013Z,5.03
2023-05-13T07:29:41.711Z,4.65
2023-05-13T07:32:08.918Z,4.78
2023-05-13T07:34:35.909Z,4.85
2023-05-13T07:37:04.499Z,4.95
2023-05-13T07:39:31.320Z,4.53
2023-05-13T07:41:58.674Z,4.65
2023-05-13T07:44:26.027Z,5.35
2023-05-13T07:46:53.627Z,4.35
2023-05-13T07:49:21.551Z,4.38
2023-05-13T07:51:48.616Z,3.50
2023-05-13T07:54:15.417Z,4.40
2023-05-13T07:56:44.261Z,3.28
2023-05-13T07:59:11.184Z,3.40
2023-05-13T08:01:38.228Z,3.50
2023-05-13T08:04:05.114Z,2.72
2023-05-13T08:06:33.029Z,3.15
2023-05-13T08:09:01.304Z,3.42
2023-05-13T08:11:28.901Z,3.40
2023-05-13T08:13:55.918Z,3.10
2023-05-13T08:16:23.150Z,3.08
2023-05-13T08:18:50.050Z,3.15
2023-05-13T08:21:17.076Z,3.42
2023-05-13T08:23:45.818Z,3.50
2023-05-13T08:26:13.814Z,3.25
2023-05-13T08:28:41.875Z,3.78
2023-05-13T08:31:12.688Z,3.42
2023-05-13T08:33:41.698Z,2.97
2023-05-13T08:36:09.435Z,3.10
2023-05-13T08:38:36.316Z,3.35
2023-05-13T08:41:06.801Z,3.38
2023-05-13T08:43:34.282Z,2.97
2023-05-13T08:46:04.075Z,3.35
2023-05-13T08:48:32.057Z,3.05
2023-05-13T08:51:01.057Z,3.22
2023-05-13T08:53:28.507Z,3.22
2023-05-13T08:55:56.665Z,2.70
2023-05-13T08:58:25.220Z,3.25
2023-05-13T09:00:54.099Z,3.33
2023-05-13T09:03:21.684Z,3.60
2023-05-13T09:05:48.872Z,3.08
2023-05-13T09:08:15.594Z,2.97
2023-05-13T09:10:42.984Z,3.08
2023-05-13T09:13:11.976Z,2.70
2023-05-13T09:15:42.213Z,2.83
2023-05-13T09:18:09.326Z,2.92
2023-05-13T09:20:36.553Z,2.63
2023-05-13T09:23:07.507Z,2.20
2023-05-13T09:25:36.551Z,3.33
2023-05-13T09:28:05.774Z,2.38
2023-05-13T09:30:34.931Z,2.35
2023-05-13T09:33:10.447Z,2.67
2023-05-13T09:35:40.305Z,2.28
2023-05-13T09:38:20.326Z,2.70
2023-05-13T09:40:54.550Z,3.47
2023-05-13T09:43:23.267Z,2.55
2023-05-13T09:45:57.699Z,2.95
2023-05-13T09:48:26.796Z,2.75
2023-05-13T09:50:55.406Z,3.10
2023-05-13T09:53:22.391Z,2.70
2023-05-13T09:55:52.780Z,2.55
2023-05-13T09:58:20.612Z,3.10
2023-05-13T10:00:48.495Z,2.78
2023-05-13T10:03:16.038Z,2.65
2023-05-13T10:05:43.327Z,2.65
2023-05-13T10:08:17.535Z,2.42
2023-05-13T10:10:46.169Z,2.80
2023-05-13T10:13:20.073Z,3.08
2023-05-13T10:15:52.097Z,2.50
2023-05-13T10:18:20.580Z,2.40
2023-05-13T10:20:53.786Z,2.35
2023-05-13T10:23:22.676Z,3.00
2023-05-13T10:25:55.397Z,2.50
2023-05-13T10:28:22.465Z,2.90
2023-05-13T10:30:51.299Z,2.53
2023-05-13T10:33:18.735Z,3.33
2023-05-13T10:36:04.727Z,2.22
2023-05-13T10:39:20.082Z,2.67
2023-05-13T10:42:27.596Z,3.30
2023-05-13T10:44:55.728Z,3.45
2023-05-13T10:47:23.115Z,2.60
2023-05-13T10:49:53.367Z,4.22
2023-05-13T10:52:20.636Z,2.65
2023-05-13T10:55:05.590Z,2.90
2023-05-13T10:57:38.699Z,2.97
2023-05-13T11:00:16.575Z,2.83
2023-05-13T11:02:43.964Z,3.47
2023-05-13T11:05:20.104Z,2.85
2023-05-13T11:07:57.464Z,3.60
2023-05-13T11:10:30.554Z,3.03
2023-05-13T11:13:15.879Z,3.50
2023-05-13T11:15:53.975Z,3.15
2023-05-13T11:18:29.884Z,3.03
2023-05-13T11:21:05.560Z,2.53
2023-05-13T11:23:43.961Z,3.30
2023-05-13T11:26:17.170Z,4.45
2023-05-13T11:28:57.641Z,3.28
2023-05-13T11:31:26.037Z,3.28
2023-05-13T11:34:20.170Z,2.90
2023-05-13T11:36:49.862Z,2.70
2023-05-13T11:39:22.421Z,2.90
2023-05-13T11:41:50.964Z,2.80
2023-05-13T11:44:20.253Z,2.88
2023-05-13T11:46:57.022Z,3.08
2023-05-13T11:49:44.658Z,2.85
2023-05-13T11:52:19.420Z,3.45
2023-05-13T11:54:57.485Z,2.47
2023-05-13T11:57:28.413Z,2.65
2023-05-13T12:00:00.846Z,2.85
2023-05-13T12:02:29.860Z,2.70
2023-05-13T12:05:02.023Z,3.30
2023-05-13T12:07:28.967Z,2.53
2023-05-13T12:09:58.064Z,2.85
2023-05-13T12:12:26.757Z,3.00
2023-05-13T12:15:00.010Z,2.72
2023-05-13T12:17:27.095Z,2.42
2023-05-13T12:20:07.411Z,2.83
2023-05-13T12:22:57.066Z,2.88
2023-05-13T12:25:39.535Z,3.25
2023-05-13T12:28:13.765Z,2.78
2023-05-13T12:30:44.175Z,2.60
2023-05-13T12:33:15.675Z,2.67
2023-05-13T12:35:44.074Z,2.78
2023-05-13T12:38:16.472Z,2.33
2023-05-13T12:40:47.679Z,2.92
2023-05-13T12:43:16.780Z,2.25
2023-05-13T12:45:45.852Z,2.40
2023-05-13T12:48:14.432Z,2.53
2023-05-13T12:50:41.522Z,2.20
2023-05-13T12:53:08.242Z,2.72
2023-05-13T12:55:39.966Z,3.08
2023-05-13T12:58:11.141Z,2.35
2023-05-13T13:00:38.386Z,2.53
2023-05-13T13:03:05.305Z,2.80
2023-05-13T13:05:33.082Z,2.80
2023-05-13T13:08:01.377Z,3.03
2023-05-13T13:10:28.716Z,3.05
2023-05-13T13:12:55.537Z,2.63
2023-05-13T13:15:22.845Z,2.30
2023-05-13T13:17:49.809Z,2.88
2023-05-13T13:20:16.916Z,2.80
2023-05-13T13:22:43.602Z,2.40
2023-05-13T13:25:10.845Z,2.10
2023-05-13T13:27:37.597Z,2.28
2023-05-13T13:30:05.387Z,1.90
2023-05-13T13:32:35.299Z,2.42
2023-05-13T13:35:03.409Z,1.80
2023-05-13T13:37:30.669Z,1.90
2023-05-13T13:39:57.758Z,1.88
2023-05-13T13:42:28.669Z,2.35
2023-05-13T13:45:02.313Z,1.88
2023-05-13T13:47:29.289Z,2.20
2023-05-13T13:49:56.314Z,2.20
2023-05-13T13:52:24.515Z,2.40
2023-05-13T13:54:51.510Z,2.30
2023-05-13T13:57:18.223Z,1.85
2023-05-13T13:59:45.275Z,2.30
2023-05-13T14:02:12.011Z,2.25
2023-05-13T14:04:39.670Z,2.05
2023-05-13T14:07:06.513Z,2.33
2023-05-13T14:09:33.778Z,2.20
2023-05-13T14:12:00.488Z,1.85
2023-05-13T14:14:27.555Z,2.10
2023-05-13T14:16:54.319Z,2.97
2023-05-13T14:19:21.309Z,4.35
2023-05-13T14:21:48.062Z,2.58
2023-05-13T14:24:15.092Z,2.20
2023-05-13T14:26:42.045Z,2.30
2023-05-13T14:29:09.057Z,2.83
2023-05-13T14:31:35.982Z,2.50
2023-05-13T14:34:03.106Z,2.58
2023-05-13T14:36:31.296Z,2.33
2023-05-13T14:38:58.885Z,2.40
2023-05-13T14:41:26.329Z,2.35
2023-05-13T14:43:53.406Z,2.50
2023-05-13T14:46:20.228Z,2.92
2023-05-13T14:48:47.287Z,2.33
2023-05-13T14:51:14.101Z,2.70
2023-05-13T14:53:42.564Z,2.20
2023-05-13T14:56:09.447Z,2.58
2023-05-13T14:58:36.684Z,2.38
2023-05-13T15:01:03.826Z,2.53
2023-05-13T15:03:30.914Z,2.28
2023-05-13T15:05:58.127Z,2.28
2023-05-13T15:08:25.514Z,2.05
2023-05-13T15:10:52.262Z,1.83
2023-05-13T15:13:19.342Z,2.10
2023-05-13T15:15:46.355Z,1.90
2023-05-13T15:18:14.111Z,2.45
2023-05-13T15:20:40.957Z,2.33
2023-05-13T15:23:08.064Z,1.92
2023-05-13T15:25:35.871Z,2.20
2023-05-13T15:28:02.995Z,1.80
2023-05-13T15:30:30.079Z,1.88
2023-05-13T15:32:57.160Z,2.00
2023-05-13T15:35:23.913Z,2.05
2023-05-13T15:37:50.968Z,2.00
2023-05-13T15:40:17.791Z,2.20
2023-05-13T15:42:44.825Z,1.98
2023-05-13T15:45:11.610Z,1.80
2023-05-13T15:47:38.736Z,3.30
2023-05-13T15:50:06.365Z,5.65
2023-05-13T15:52:33.451Z,5.78
2023-05-13T15:55:00.230Z,3.65
2023-05-13T15:57:27.286Z,2.75
2023-05-13T15:59:54.019Z,2.10
2023-05-13T16:02:21.289Z,1.90
2023-05-13T16:04:48.211Z,2.00
2023-05-13T16:07:15.363Z,1.98
2023-05-13T16:09:42.103Z,2.65
2023-05-13T16:12:09.522Z,2.00
2023-05-13T16:14:36.288Z,2.10
2023-05-13T16:17:03.300Z,2.40
2023-05-13T16:19:30.038Z,2.40
2023-05-13T16:21:57.020Z,1.63
2023-05-13T16:24:23.755Z,2.08
2023-05-13T16:26:50.802Z,3.80
2023-05-13T16:29:17.633Z,2.30
2023-05-13T16:31:44.660Z,2.72
2023-05-13T16:34:11.471Z,2.88
2023-05-13T16:36:38.505Z,2.67
2023-05-13T16:39:05.537Z,2.50
2023-05-13T16:41:33.263Z,3.28
2023-05-13T16:44:00.101Z,2.50
2023-05-13T16:46:27.162Z,3.40
2023-05-13T16:48:54.158Z,2.80
2023-05-13T16:51:21.293Z,3.05
2023-05-13T16:53:47.970Z,2.83
2023-05-13T16:56:15.073Z,3.05
2023-05-13T16:58:41.916Z,2.92
2023-05-13T17:01:08.894Z,2.20
2023-05-13T17:03:35.775Z,3.13
2023-05-13T17:06:03.194Z,2.67
2023-05-13T17:08:30.025Z,2.78
2023-05-13T17:10:57.041Z,3.35
2023-05-13T17:13:23.796Z,2.60
2023-05-13T17:15:51.446Z,3.35
2023-05-13T17:18:18.266Z,2.97
2023-05-13T17:20:46.126Z,2.80
2023-05-13T17:23:12.864Z,2.90
2023-05-13T17:25:39.869Z,2.80
2023-05-13T17:28:09.305Z,6.57
2023-05-13T17:30:36.287Z,4.70
2023-05-13T17:33:03.083Z,7.75
2023-05-13T17:35:30.222Z,7.50
2023-05-13T17:37:57.065Z,5.43
2023-05-13T17:40:24.452Z,4.88
2023-05-13T17:42:52.837Z,4.63
2023-05-13T17:45:20.257Z,3.65
2023-05-13T17:47:47.494Z,3.42
2023-05-13T17:50:14.929Z,3.40
2023-05-13T17:52:41.822Z,3.20
2023-05-13T17:55:08.999Z,13.75
2023-05-13T17:57:35.815Z,6.22
2023-05-13T18:00:06.630Z,5.88
2023-05-13T18:02:36.039Z,8.77
2023-05-13T18:05:03.376Z,9.15
2023-05-13T18:07:30.778Z,9.40
2023-05-13T18:09:58.236Z,10.95
2023-05-13T18:12:29.144Z,7.00
2023-05-13T18:14:56.409Z,10.52
2023-05-13T18:17:23.413Z,10.40
2023-05-13T18:19:50.443Z,8.40
2023-05-13T18:22:17.148Z,8.65
2023-05-13T18:24:44.287Z,7.80
2023-05-13T18:27:10.990Z,8.77
2023-05-13T18:29:38.126Z,5.13
2023-05-13T18:32:05.383Z,6.53
2023-05-13T18:34:33.403Z,5.28
2023-05-13T18:37:00.234Z,7.40
2023-05-13T18:39:27.335Z,5.07
2023-05-13T18:41:54.281Z,5.10
2023-05-13T18:44:21.270Z,4.65
2023-05-13T18:46:48.372Z,6.57
2023-05-13T18:49:15.416Z,9.00
2023-05-13T18:51:42.307Z,9.88
2023-05-13T18:54:09.425Z,10.25
2023-05-13T18:56:36.193Z,10.45
2023-05-13T18:59:03.282Z,10.05
2023-05-13T19:01:30.157Z,14.95
2023-05-13T19:03:57.506Z,16.27
2023-05-13T19:06:24.290Z,12.70
2023-05-13T19:08:51.320Z,11.68
2023-05-13T19:11:18.064Z,8.40
2023-05-13T19:13:47.622Z,6.97
2023-05-13T19:16:15.676Z,5.75
2023-05-13T19:18:42.942Z,5.00
2023-05-13T19:21:09.705Z,5.50
2023-05-13T19:23:37.902Z,4.95
2023-05-13T19:26:04.732Z,8.27
2023-05-13T19:28:32.428Z,9.95
2023-05-13T19:30:59.360Z,10.93
2023-05-13T19:33:26.426Z,12.25
2023-05-13T19:35:53.207Z,11.07
2023-05-13T19:38:21.451Z,11.77
2023-05-13T19:40:48.246Z,13.38
2023-05-13T19:43:15.299Z,15.85
2023-05-13T19:45:42.159Z,18.45
2023-05-13T19:48:09.308Z,10.77
2023-05-13T19:50:36.043Z,10.90
2023-05-13T19:53:03.171Z,16.33
2023-05-13T19:55:29.959Z,20.65
2023-05-13T19:57:57.005Z,22.98
2023-05-13T20:00:24.099Z,22.15
2023-05-13T20:02:51.518Z,23.15
2023-05-13T20:05:18.346Z,19.60
2023-05-13T20:07:45.381Z,19.30
2023-05-13T20:10:12.206Z,21.58
2023-05-13T20:12:39.266Z,22.67
2023-05-13T20:15:06.682Z,22.20
2023-05-13T20:17:33.832Z,44.22
2023-05-13T20:20:00.784Z,69.10
2023-05-13T20:22:27.998Z,55.75
2023-05-13T20:24:54.715Z,54.28
2023-05-13T20:27:21.729Z,55.85
2023-05-13T20:29:49.223Z,50.67
2023-05-13T20:32:24.524Z,56.85
2023-05-13T20:34:52.521Z,42.90
2023-05-13T20:37:21.784Z,41.25
2023-05-13T20:39:50.509Z,44.38
2023-05-13T20:42:17.808Z,45.72
2023-05-13T20:44:46.356Z,48.67
2023-05-13T20:47:14.188Z,38.65
2023-05-13T20:49:43.796Z,57.83
2023-05-13T20:52:11.514Z,59.58
2023-05-13T20:54:38.450Z,63.90
2023-05-13T20:57:05.689Z,67.50
2023-05-13T20:59:32.497Z,67.80
2023-05-13T21:01:59.588Z,76.90
2023-05-13T21:04:26.724Z,69.45
2023-05-13T21:06:53.791Z,54.83
2023-05-13T21:09:20.691Z,35.65
2023-05-13T21:11:47.721Z,29.75
2023-05-13T21:14:14.803Z,27.60
2023-05-13T21:16:41.799Z,27.80
2023-05-13T21:19:08.652Z,27.80
2023-05-13T21:21:35.614Z,29.05
2023-05-13T21:24:02.408Z,25.42
2023-05-13T21:26:29.408Z,24.10
2023-05-13T21:28:56.146Z,20.35
2023-05-13T21:31:23.737Z,18.05
2023-05-13T21:33:50.646Z,17.10
2023-05-13T21:36:17.632Z,18.08
2023-05-13T21:38:44.386Z,18.48
2023-05-13T21:41:11.469Z,18.77
2023-05-13T21:43:38.262Z,17.15
2023-05-13T21:46:06.599Z,15.30
2023-05-13T21:48:33.346Z,14.73
2023-05-13T21:51:00.381Z,13.60
2023-05-13T21:53:27.631Z,12.77
2023-05-13T21:55:58.990Z,12.55
2023-05-13T21:58:25.902Z,10.70
2023-05-13T22:00:53.670Z,8.13
2023-05-13T22:03:20.536Z,8.73
2023-05-13T22:05:47.576Z,8.80
2023-05-13T22:08:14.302Z,9.23
2023-05-13T22:10:41.638Z,8.95
2023-05-13T22:13:08.365Z,9.15
2023-05-13T22:15:35.441Z,10.32
2023-05-13T22:18:02.324Z,10.43
2023-05-13T22:20:29.562Z,10.13
2023-05-13T22:22:56.283Z,10.70
2023-05-13T22:25:23.298Z,9.95
2023-05-13T22:27:51.144Z,9.90
2023-05-13T22:30:18.582Z,10.50
2023-05-13T22:32:45.373Z,10.27
2023-05-13T22:35:12.410Z,10.13
2023-05-13T22:37:39.134Z,8.88
2023-05-13T22:40:08.682Z,9.50
2023-05-13T22:42:35.461Z,12.10
2023-05-13T22:45:02.574Z,13.73
2023-05-13T22:47:29.362Z,12.57
2023-05-13T22:49:56.351Z,11.25
2023-05-13T22:52:23.090Z,12.32
2023-05-13T22:54:50.050Z,10.35
2023-05-13T22:57:17.092Z,10.27
2023-05-13T22:59:44.078Z,10.48
2023-05-13T23:02:10.960Z,12.20
2023-05-13T23:04:38.135Z,12.00
2023-05-13T23:07:05.497Z,11.05
2023-05-13T23:09:32.412Z,10.70
2023-05-13T23:11:59.100Z,10.40
2023-05-13T23:14:27.625Z,10.88
2023-05-13T23:16:54.307Z,10.97
2023-05-13T23:19:21.443Z,9.45
2023-05-13T23:21:48.101Z,9.13
2023-05-13T23:24:15.190Z,8.15
2023-05-13T23:26:44.650Z,8.80
2023-05-13T23:29:12.934Z,9.13
2023-05-13T23:31:42.501Z,8.80
2023-05-13T23:34:09.595Z,9.13
2023-05-13T23:36:36.326Z,9.15
2023-05-13T23:39:03.493Z,9.00
2023-05-13T23:41:30.317Z,9.20
2023-05-13T23:43:57.271Z,8.68
2023-05-13T23:46:24.247Z,8.85
2023-05-13T23:48:51.280Z,8.77
2023-05-13T23:51:18.124Z,9.07
2023-05-13T23:53:45.084Z,8.70
2023-05-13T23:56:11.829Z,8.48
2023-05-13T23:58:38.891Z,8.70
